Time;durP1;ratioP1;P1;durP2;ratioP2;P2;SDS_P1;SDS_P2;PMS_P1;PMS_P2;Temp;Humidity;BMP_temperature;BMP_pressure;BME280_temperature;BME280_humidity;BME280_pressure;Samples;Min_cycle;Max_cycle;Signal;HPM_P1;HPM_P2
2021/09/22 00:00:11;;;;;;;10.32;7.63;;;;;;;11.64;90.25;102174.53;4918915;28;20055;-85
2021/09/22 00:02:37;;;;;;;12.07;8.07;;;;;;;11.63;89.64;102171.88;4922781;28;20046;-83
2021/09/22 00:05:09;;;;;;;11.02;7.40;;;;;;;11.59;89.08;102171.84;4938623;28;20051;-85
2021/09/22 00:07:36;;;;;;;8.20;6.60;;;;;;;11.59;89.55;102170.97;4935524;28;20051;-83
2021/09/22 00:10:08;;;;;;;10.07;7.03;;;;;;;11.56;89.50;102169.19;4936830;28;20051;-84
2021/09/22 00:12:35;;;;;;;11.20;6.55;;;;;;;11.54;90.13;102176.16;4938673;28;20050;-85
2021/09/22 00:15:04;;;;;;;12.13;8.00;;;;;;;11.55;90.09;102182.28;4939210;28;20139;-83
2021/09/22 00:17:34;;;;;;;9.05;6.95;;;;;;;11.55;90.16;102182.28;4918424;28;20051;-83
2021/09/22 00:20:02;;;;;;;9.73;7.25;;;;;;;11.55;90.39;102183.16;4933589;28;20048;-85
2021/09/22 00:22:29;;;;;;;7.93;6.25;;;;;;;11.59;90.75;102178.84;4923261;28;20134;-83
2021/09/22 00:24:56;;;;;;;8.95;6.85;;;;;;;11.66;90.43;102175.41;4920415;28;20443;-86
2021/09/22 00:27:22;;;;;;;13.95;8.15;;;;;;;11.71;92.09;102178.09;4942989;28;20047;-84
2021/09/22 00:29:49;;;;;;;8.75;6.97;;;;;;;11.72;90.30;102179.84;4938436;28;21032;-82
2021/09/22 00:32:16;;;;;;;10.35;8.18;;;;;;;11.70;90.20;102184.19;4926033;28;20238;-85
2021/09/22 00:34:42;;;;;;;10.73;7.32;;;;;;;11.63;90.93;102177.13;4941394;28;20695;-84
2021/09/22 00:37:12;;;;;;;10.02;7.63;;;;;;;11.54;91.09;102175.28;4924381;28;20046;-86
2021/09/22 00:39:38;;;;;;;11.75;7.68;;;;;;;11.46;91.56;102175.19;4941953;28;20413;-83
2021/09/22 00:42:06;;;;;;;12.07;8.35;;;;;;;11.45;92.97;102177.81;4926617;28;20066;-84
2021/09/22 00:44:51;;;;;;;15.68;8.48;;;;;;;11.46;92.61;102180.44;4947097;28;20046;-85
2021/09/22 00:47:21;;;;;;;12.32;8.25;;;;;;;11.44;93.02;102169.03;4927312;28;20099;-85
2021/09/22 00:49:54;;;;;;;13.18;8.35;;;;;;;11.42;92.61;102163.78;4934961;28;20165;-86
2021/09/22 00:52:22;;;;;;;9.27;8.02;;;;;;;11.44;93.11;102157.69;4929716;28;20043;-85
2021/09/22 00:54:49;;;;;;;10.57;8.27;;;;;;;11.37;93.26;102160.22;4926191;28;20054;-83
2021/09/22 00:57:18;;;;;;;11.95;8.80;;;;;;;11.31;93.51;102161.91;4943600;28;20521;-83
2021/09/22 00:59:45;;;;;;;12.02;9.95;;;;;;;11.24;94.51;102159.19;4927157;28;20047;-82
2021/09/22 01:02:12;;;;;;;14.35;8.82;;;;;;;11.18;94.16;102163.47;4926858;28;20070;-82
2021/09/22 01:04:42;;;;;;;19.58;9.45;;;;;;;11.10;96.17;102166.00;4944282;28;20386;-83
2021/09/22 01:07:11;;;;;;;13.90;8.98;;;;;;;11.03;95.88;102167.66;4941537;28;20129;-83
2021/09/22 01:09:39;;;;;;;14.35;9.05;;;;;;;10.95;96.14;102164.06;4940249;28;20050;-83
2021/09/22 01:12:07;;;;;;;11.48;8.60;;;;;;;10.88;96.46;102162.22;4931706;28;20216;-83
2021/09/22 01:14:34;;;;;;;15.13;9.40;;;;;;;10.83;96.62;102169.13;4927519;28;20517;-82
2021/09/22 01:17:01;;;;;;;15.07;9.85;;;;;;;10.78;97.89;102165.56;4925843;28;23354;-85
2021/09/22 01:19:29;;;;;;;13.63;9.45;;;;;;;10.76;97.81;102181.25;4928014;28;20051;-85
2021/09/22 01:21:57;;;;;;;14.55;9.75;;;;;;;10.73;97.89;102176.84;4942310;28;20047;-83
2021/09/22 01:24:24;;;;;;;15.13;9.38;;;;;;;10.80;98.86;102174.34;4926537;28;20812;-83
2021/09/22 01:26:52;;;;;;;13.32;10.05;;;;;;;10.86;98.60;102177.00;4937953;28;20050;-83
2021/09/22 01:29:19;;;;;;;12.88;8.75;;;;;;;10.98;98.25;102173.72;4921881;28;20043;-86
2021/09/22 01:31:46;;;;;;;16.30;10.07;;;;;;;11.10;97.88;102166.00;4925366;28;21669;-83
2021/09/22 01:34:15;;;;;;;16.70;10.52;;;;;;;11.16;96.94;102165.19;4911043;28;20047;-85
2021/09/22 01:36:42;;;;;;;14.35;9.35;;;;;;;11.11;96.94;102167.78;4907279;28;20055;-86
2021/09/22 01:39:09;;;;;;;10.95;9.20;;;;;;;11.06;97.51;102169.44;4911211;28;20061;-84
2021/09/22 01:41:35;;;;;;;14.07;8.70;;;;;;;11.01;97.84;102174.63;4910797;28;20150;-86
2021/09/22 01:44:02;;;;;;;13.32;9.93;;;;;;;10.98;98.12;102181.56;4906470;28;20121;-83
2021/09/22 01:46:29;;;;;;;12.32;9.00;;;;;;;10.93;97.97;102168.41;4922452;28;20120;-84
2021/09/22 01:48:55;;;;;;;18.75;10.27;;;;;;;10.87;98.77;102176.16;4924580;28;20051;-84
2021/09/22 01:51:22;;;;;;;21.77;10.55;;;;;;;10.82;99.39;102175.22;4924955;28;20055;-83
2021/09/22 01:53:49;;;;;;;15.38;10.38;;;;;;;10.76;99.82;102182.13;4915945;28;20133;-83
2021/09/22 01:56:15;;;;;;;15.50;11.10;;;;;;;10.71;99.96;102185.53;4925606;28;20058;-87
2021/09/22 01:58:42;;;;;;;14.48;9.32;;;;;;;10.70;100.00;102183.78;4922397;28;20078;-84
2021/09/22 02:01:13;;;;;;;16.88;11.38;;;;;;;10.68;100.00;102178.53;4909947;28;20044;-84
2021/09/22 02:03:42;;;;;;;14.77;10.30;;;;;;;10.68;100.00;102173.28;4908112;28;20058;-87
2021/09/22 02:06:09;;;;;;;15.52;10.27;;;;;;;10.65;100.00;102168.00;4919213;28;20058;-82
2021/09/22 02:08:39;;;;;;;15.55;11.02;;;;;;;10.63;100.00;102172.34;4903099;28;20126;-86
2021/09/22 02:11:06;;;;;;;18.02;10.85;;;;;;;10.67;100.00;102179.38;4917514;28;20043;-83
2021/09/22 02:13:32;;;;;;;18.13;10.82;;;;;;;10.75;100.00;102183.00;4901229;28;20046;-84
2021/09/22 02:16:01;;;;;;;14.07;9.27;;;;;;;10.88;100.00;102180.56;4920289;28;20162;-83
2021/09/22 02:18:28;;;;;;;18.70;11.43;;;;;;;11.01;100.00;102165.88;4908376;28;20150;-86
2021/09/22 02:20:55;;;;;;;15.50;10.70;;;;;;;11.13;99.66;102168.66;4923203;28;20053;-83
2021/09/22 02:23:22;;;;;;;13.75;10.70;;;;;;;11.23;98.90;102161.81;4913507;28;20055;-84
2021/09/22 02:25:48;;;;;;;15.93;10.98;;;;;;;11.33;98.74;102158.44;4908601;28;20055;-85
2021/09/22 02:28:15;;;;;;;16.45;10.98;;;;;;;11.42;97.82;102160.28;4920083;28;20161;-85
2021/09/22 02:30:41;;;;;;;14.18;9.95;;;;;;;11.48;97.84;102149.00;4906250;28;20051;-83
2021/09/22 02:33:08;;;;;;;12.15;9.32;;;;;;;11.54;97.72;102155.19;4923542;28;20039;-83
2021/09/22 02:35:35;;;;;;;16.02;10.93;;;;;;;11.58;97.24;102145.59;4904306;28;20142;-84
2021/09/22 02:38:01;;;;;;;16.00;11.57;;;;;;;11.63;97.00;102140.41;4902827;28;20054;-83
2021/09/22 02:40:28;;;;;;;16.95;11.60;;;;;;;11.64;96.75;102142.16;4920987;28;20062;-85
2021/09/22 02:42:54;;;;;;;12.23;9.65;;;;;;;11.66;96.86;102145.69;4922540;28;20141;-83
2021/09/22 02:45:24;;;;;;;18.38;11.57;;;;;;;11.66;96.93;102151.81;4918837;28;20463;-85
2021/09/22 02:47:53;;;;;;;15.15;10.45;;;;;;;11.67;96.97;102148.31;4916506;28;20190;-84
2021/09/22 02:50:20;;;;;;;18.52;13.02;;;;;;;11.69;97.13;102156.19;4908912;28;20055;-84
2021/09/22 02:52:50;;;;;;;13.15;10.02;;;;;;;11.71;96.91;102159.75;4903522;28;20047;-83
2021/09/22 02:55:22;;;;;;;14.38;10.35;;;;;;;11.72;96.97;102158.84;4905722;28;20299;-85
2021/09/22 02:57:49;;;;;;;20.35;12.02;;;;;;;11.75;97.15;102164.16;4921210;28;20055;-84
2021/09/22 03:00:16;;;;;;;17.33;12.07;;;;;;;11.77;96.98;102164.16;4920945;28;22530;-84
2021/09/22 03:02:42;;;;;;;16.38;10.85;;;;;;;11.77;96.93;102167.66;4906904;28;20479;-83
2021/09/22 03:05:11;;;;;;;16.40;11.88;;;;;;;11.78;96.74;102163.31;4914683;28;20784;-85
2021/09/22 03:07:38;;;;;;;18.02;11.18;;;;;;;11.78;97.03;102164.16;4922718;28;20048;-83
2021/09/22 03:10:05;;;;;;;16.48;11.73;;;;;;;11.79;96.94;102171.19;4920270;28;20043;-84
2021/09/22 03:12:32;;;;;;;21.13;12.65;;;;;;;11.79;96.87;102181.69;4920195;28;20055;-83
2021/09/22 03:14:59;;;;;;;14.02;11.30;;;;;;;11.80;96.76;102179.91;4901893;28;20512;-83
2021/09/22 03:17:27;;;;;;;16.13;10.88;;;;;;;11.79;96.65;102173.81;4921097;28;20054;-83
2021/09/22 03:19:53;;;;;;;16.02;10.93;;;;;;;11.81;96.90;102182.59;4919037;28;20681;-84
2021/09/22 03:22:20;;;;;;;15.80;10.23;;;;;;;11.82;97.30;102168.56;4918276;28;20043;-82
2021/09/22 03:24:47;;;;;;;20.75;12.98;;;;;;;11.81;97.44;102163.31;4923461;28;20047;-83
2021/09/22 03:27:13;;;;;;;15.25;10.25;;;;;;;11.79;97.54;102163.31;4908320;28;20154;-84
2021/09/22 03:29:40;;;;;;;16.40;10.48;;;;;;;11.78;97.43;102160.69;4923968;28;20058;-84
2021/09/22 03:32:07;;;;;;;17.77;12.80;;;;;;;11.75;97.69;102162.41;4933856;28;20047;-85
2021/09/22 03:34:36;;;;;;;16.88;12.60;;;;;;;11.71;97.87;102155.34;4933762;28;20512;-84
2021/09/22 03:37:03;;;;;;;19.30;12.25;;;;;;;11.70;98.66;102157.97;4920709;28;20069;-86
2021/09/22 03:39:29;;;;;;;23.25;13.63;;;;;;;11.70;98.52;102160.59;4935948;28;20111;-83
2021/09/22 03:41:57;;;;;;;26.80;13.93;;;;;;;11.70;98.34;102153.59;4937642;28;20055;-84
2021/09/22 03:44:26;;;;;;;26.75;13.30;;;;;;;11.69;98.68;102162.34;4933921;28;20114;-83
2021/09/22 03:46:59;;;;;;;31.10;16.02;;;;;;;11.71;98.61;102164.97;4932638;28;20055;-83
2021/09/22 03:49:26;;;;;;;33.92;17.48;;;;;;;11.71;98.95;102175.47;4935044;28;20059;-83
2021/09/22 03:51:56;;;;;;;29.27;14.50;;;;;;;11.72;98.76;102170.25;4935143;28;20051;-83
2021/09/22 03:54:22;;;;;;;26.08;12.10;;;;;;;11.72;98.72;102172.88;4937686;28;20043;-83
2021/09/22 03:56:52;;;;;;;26.08;14.80;;;;;;;11.72;99.09;102170.25;4917295;28;21513;-84
2021/09/22 03:59:18;;;;;;;22.83;13.70;;;;;;;11.73;99.03;102171.09;4920836;28;20071;-83
2021/09/22 04:01:45;;;;;;;40.33;16.05;;;;;;;11.75;99.11;102165.00;4937883;28;20047;-83
2021/09/22 04:04:16;;;;;;;24.00;14.00;;;;;;;11.78;98.62;102176.41;4923585;28;20063;-84
2021/09/22 04:06:42;;;;;;;22.20;11.60;;;;;;;11.77;98.79;102174.66;4923015;28;20055;-86
2021/09/22 04:09:10;;;;;;;20.73;13.88;;;;;;;11.72;98.84;102170.25;4921497;28;20055;-83
2021/09/22 04:11:38;;;;;;;20.48;12.82;;;;;;;11.67;99.17;102171.06;4939702;28;20054;-82
2021/09/22 04:14:05;;;;;;;24.25;14.77;;;;;;;11.59;99.76;102163.97;4934913;28;20080;-83
2021/09/22 04:16:32;;;;;;;23.05;14.35;;;;;;;11.58;100.00;102162.22;4931825;28;20047;-84
2021/09/22 04:19:00;;;;;;;23.25;14.07;;;;;;;11.59;100.00;102166.59;4913678;28;20075;-85
2021/09/22 04:21:26;;;;;;;25.02;14.95;;;;;;;11.62;100.00;102165.75;4937207;28;20130;-82
2021/09/22 04:23:53;;;;;;;25.95;15.75;;;;;;;11.60;100.00;102162.22;4917499;28;20056;-82
2021/09/22 04:26:20;;;;;;;18.70;12.93;;;;;;;11.56;100.00;102161.34;4927149;28;20097;-83
2021/09/22 04:28:46;;;;;;;21.98;12.57;;;;;;;11.50;100.00;102165.59;4917534;28;20086;-86
2021/09/22 04:31:13;;;;;;;24.52;15.02;;;;;;;11.42;100.00;102160.28;4915137;28;20078;-84
2021/09/22 04:33:42;;;;;;;18.17;13.48;;;;;;;11.33;100.00;102170.66;4919075;28;20098;-83
2021/09/22 04:36:08;;;;;;;20.13;12.90;;;;;;;11.23;100.00;102164.44;4915584;28;20078;-86
2021/09/22 04:38:36;;;;;;;26.38;15.30;;;;;;;11.19;100.00;102160.88;4900063;28;20067;-83
2021/09/22 04:41:04;;;;;;;24.88;17.10;;;;;;;11.16;100.00;102157.31;4905241;28;20473;-85
2021/09/22 04:43:39;;;;;;;20.98;15.18;;;;;;;11.12;100.00;102163.41;4915961;28;20054;-85
2021/09/22 04:46:06;;;;;;;31.50;17.38;;;;;;;11.08;100.00;102158.13;4904935;28;20057;-83
2021/09/22 04:48:33;;;;;;;23.35;15.20;;;;;;;11.07;100.00;102161.59;4920463;28;20169;-83
2021/09/22 04:51:00;;;;;;;29.08;17.50;;;;;;;11.04;100.00;102160.66;4901908;28;20047;-83
2021/09/22 04:53:29;;;;;;;33.15;15.68;;;;;;;11.05;100.00;102157.19;4920676;28;20044;-82
2021/09/22 04:55:56;;;;;;;31.75;16.75;;;;;;;11.09;100.00;102161.63;4913683;28;20142;-84
2021/09/22 04:58:28;;;;;;;39.63;19.58;;;;;;;11.14;100.00;102153.81;4908226;28;20553;-84
2021/09/22 05:00:59;;;;;;;37.25;17.05;;;;;;;11.17;100.00;102165.25;4918604;28;20529;-86
2021/09/22 05:03:33;;;;;;;30.70;16.65;;;;;;;11.17;100.00;102156.47;4910590;28;20061;-86
2021/09/22 05:06:01;;;;;;;27.67;17.55;;;;;;;11.17;100.00;102153.84;4922635;28;20511;-82
2021/09/22 05:08:28;;;;;;;30.65;16.42;;;;;;;11.12;100.00;102163.41;4902680;28;20067;-86
2021/09/22 05:10:58;;;;;;;33.17;17.50;;;;;;;11.08;100.00;102160.75;4898794;28;20602;-86
2021/09/22 05:13:25;;;;;;;29.88;16.73;;;;;;;11.07;100.00;102158.97;4896275;28;20056;-85
2021/09/22 05:15:52;;;;;;;26.83;17.15;;;;;;;11.09;100.00;102166.84;4904681;28;20047;-86
2021/09/22 05:18:21;;;;;;;28.10;18.58;;;;;;;11.12;100.00;102164.28;4916145;28;20093;-87
2021/09/22 05:20:48;;;;;;;26.90;17.15;;;;;;;11.12;100.00;102166.91;4916001;28;20044;-84
2021/09/22 05:23:15;;;;;;;29.55;16.98;;;;;;;11.12;100.00;102169.53;4920040;28;20055;-83
2021/09/22 05:25:42;;;;;;;26.73;17.33;;;;;;;11.12;100.00;102166.00;4910711;28;20189;-83
2021/09/22 05:28:09;;;;;;;33.80;18.88;;;;;;;11.12;100.00;102166.91;4931947;28;20066;-84
2021/09/22 05:30:38;;;;;;;32.60;18.45;;;;;;;11.12;100.00;102166.91;4922320;28;20047;-85
2021/09/22 05:33:10;;;;;;;30.17;18.15;;;;;;;11.10;100.00;102166.00;4938040;28;20213;-85
2021/09/22 05:35:38;;;;;;;33.03;18.88;;;;;;;11.09;100.00;102170.38;4939710;28;20419;-84
2021/09/22 05:38:06;;;;;;;24.45;16.83;;;;;;;11.09;100.00;102166.84;4935925;28;20073;-81
2021/09/22 05:40:34;;;;;;;29.52;17.65;;;;;;;11.12;100.00;102173.88;4923575;28;20418;-84
2021/09/22 05:43:01;;;;;;;32.90;19.42;;;;;;;11.10;100.00;102166.00;4911371;28;20557;-87
2021/09/22 05:45:27;;;;;;;32.17;18.30;;;;;;;11.13;100.00;102171.28;4939655;28;20102;-83
2021/09/22 05:47:57;;;;;;;29.70;17.33;;;;;;;11.13;100.00;102170.41;4938477;28;20047;-83
2021/09/22 05:50:24;;;;;;;32.05;20.60;;;;;;;11.13;100.00;102181.75;4934446;28;20051;-84
2021/09/22 05:52:51;;;;;;;29.33;18.70;;;;;;;11.15;100.00;102187.91;4936649;28;20136;-85
2021/09/22 05:55:18;;;;;;;28.73;17.77;;;;;;;11.19;100.00;102197.56;4932663;28;20047;-82
2021/09/22 05:57:47;;;;;;;36.85;21.55;;;;;;;11.25;100.00;102202.91;4937294;28;20583;-83
2021/09/22 06:00:15;;;;;;;31.80;18.65;;;;;;;11.34;100.00;102194.28;4934731;28;20568;-83
2021/09/22 06:02:41;;;;;;;35.08;19.45;;;;;;;11.45;100.00;102198.78;4917026;28;20059;-84
2021/09/22 06:05:09;;;;;;;39.55;20.95;;;;;;;11.55;100.00;102196.28;4918348;28;20058;-85
2021/09/22 06:07:35;;;;;;;31.13;18.70;;;;;;;11.69;100.00;102200.81;4917400;28;20514;-85
2021/09/22 06:10:02;;;;;;;29.48;17.88;;;;;;;11.81;100.00;102193.09;4938111;28;20051;-85
2021/09/22 06:12:31;;;;;;;33.30;17.95;;;;;;;11.94;100.00;102191.44;4920398;28;20608;-83
2021/09/22 06:14:58;;;;;;;24.83;16.55;;;;;;;12.07;100.00;102195.09;4938728;28;20142;-83
2021/09/22 06:17:24;;;;;;;27.58;16.90;;;;;;;12.17;100.00;102194.31;4927045;28;20100;-83
2021/09/22 06:19:51;;;;;;;27.95;17.10;;;;;;;12.27;100.00;102194.41;4937286;28;20498;-82
2021/09/22 06:22:23;;;;;;;29.65;16.25;;;;;;;12.37;100.00;102193.63;4923352;28;20848;-83
2021/09/22 06:24:50;;;;;;;30.92;15.60;;;;;;;12.46;100.00;102196.31;4936075;28;20044;-82
2021/09/22 06:27:18;;;;;;;25.58;15.63;;;;;;;12.55;100.00;102196.41;4921990;28;20161;-87
2021/09/22 06:29:45;;;;;;;24.27;15.65;;;;;;;12.63;100.00;102187.69;4918572;28;21276;-83
2021/09/22 06:32:13;;;;;;;24.45;15.30;;;;;;;12.71;100.00;102191.25;4936562;28;20054;-83
2021/09/22 06:34:41;;;;;;;34.53;17.75;;;;;;;12.80;100.00;102195.69;4936773;28;20042;-83
2021/09/22 06:37:08;;;;;;;20.17;13.85;;;;;;;12.90;100.00;102192.25;4917556;28;20142;-82
2021/09/22 06:39:35;;;;;;;27.50;15.98;;;;;;;12.99;100.00;102192.31;4925716;28;20434;-85
2021/09/22 06:42:04;;;;;;;28.38;15.35;;;;;;;13.07;100.00;102198.50;4918578;28;20051;-86
2021/09/22 06:44:31;;;;;;;22.40;15.45;;;;;;;13.13;100.00;102191.50;4921136;28;20048;-88
2021/09/22 06:46:57;;;;;;;23.23;14.88;;;;;;;13.18;100.00;102192.38;4935546;28;20051;-83
2021/09/22 06:49:24;;;;;;;19.60;14.10;;;;;;;13.26;100.00;102195.06;4934057;28;20911;-83
2021/09/22 06:51:51;;;;;;;21.55;14.25;;;;;;;13.33;100.00;102199.50;4937873;28;20518;-84
2021/09/22 06:54:20;;;;;;;22.90;15.07;;;;;;;13.38;100.00;102196.03;4918236;28;20043;-86
2021/09/22 06:56:47;;;;;;;24.70;13.88;;;;;;;13.45;100.00;102188.16;4920554;28;20043;-82
2021/09/22 06:59:14;;;;;;;24.27;15.10;;;;;;;13.54;99.76;102189.06;4937919;28;20943;-84
2021/09/22 07:01:41;;;;;;;18.83;13.73;;;;;;;13.64;99.37;102178.59;4937018;28;20047;-83
2021/09/22 07:04:08;;;;;;;21.35;14.10;;;;;;;13.75;99.00;102178.63;4922546;28;20058;-82
2021/09/22 07:06:35;;;;;;;23.30;13.98;;;;;;;13.85;98.27;102183.03;4927986;28;20546;-84
2021/09/22 07:09:01;;;;;;;21.33;12.13;;;;;;;13.92;97.95;102190.03;4938818;28;20130;-83
2021/09/22 07:11:28;;;;;;;21.42;13.00;;;;;;;13.97;97.52;102193.56;4918007;28;20059;-86
2021/09/22 07:13:55;;;;;;;20.40;12.15;;;;;;;14.04;97.24;102190.06;4918917;28;20155;-83
2021/09/22 07:16:21;;;;;;;19.33;12.32;;;;;;;14.06;96.44;102196.22;4919230;28;20055;-82
2021/09/22 07:18:48;;;;;;;18.05;12.55;;;;;;;14.08;96.95;102190.97;4911960;28;20040;-83
2021/09/22 07:21:16;;;;;;;18.30;11.73;;;;;;;14.10;96.71;102196.22;4937134;28;20087;-83
2021/09/22 07:23:43;;;;;;;17.48;11.05;;;;;;;14.12;96.51;102200.63;4911708;28;20262;-85
2021/09/22 07:26:09;;;;;;;19.42;12.73;;;;;;;14.11;96.14;102203.25;4930678;28;20134;-83
2021/09/22 07:28:36;;;;;;;19.52;11.40;;;;;;;14.12;96.36;102202.34;4923064;28;20077;-84
2021/09/22 07:31:04;;;;;;;16.20;12.15;;;;;;;14.11;96.33;102208.53;4939449;28;20047;-84
2021/09/22 07:33:31;;;;;;;17.67;10.77;;;;;;;14.06;96.42;102208.50;4921562;28;20051;-82
2021/09/22 07:35:58;;;;;;;18.85;12.18;;;;;;;14.10;96.43;102207.63;4921354;28;20522;-87
2021/09/22 07:38:26;;;;;;;20.52;12.88;;;;;;;14.15;96.11;102210.28;4939739;28;20051;-85
2021/09/22 07:40:53;;;;;;;19.42;11.40;;;;;;;14.22;95.98;102212.03;4915252;28;20360;-84
2021/09/22 07:43:20;;;;;;;19.85;12.02;;;;;;;14.31;95.60;102219.06;4919924;28;20074;-82
2021/09/22 07:45:47;;;;;;;18.52;11.00;;;;;;;14.42;95.37;102221.69;4921341;28;20045;-86
2021/09/22 07:48:13;;;;;;;21.83;12.65;;;;;;;14.48;94.38;102214.66;4934655;28;20524;-84
2021/09/22 07:50:40;;;;;;;17.70;11.43;;;;;;;14.53;94.25;102219.94;4941019;28;20047;-82
2021/09/22 07:53:07;;;;;;;16.42;11.38;;;;;;;14.55;93.64;102223.47;4937592;28;20046;-87
2021/09/22 07:55:33;;;;;;;13.90;9.32;;;;;;;14.61;93.94;102225.22;4940788;28;20043;-86
2021/09/22 07:58:00;;;;;;;15.13;9.93;;;;;;;14.69;93.10;102229.66;4915635;28;20142;-84
2021/09/22 08:00:26;;;;;;;16.80;10.73;;;;;;;14.68;93.14;102227.03;4924586;28;20066;-84
2021/09/22 08:02:54;;;;;;;17.30;11.90;;;;;;;14.71;93.12;102221.72;4953908;28;20046;-84
2021/09/22 08:05:21;;;;;;;17.80;9.52;;;;;;;14.78;92.87;102227.88;4921066;28;20074;-86
2021/09/22 08:07:48;;;;;;;16.50;10.15;;;;;;;14.82;92.36;102219.97;4923659;28;20061;-85
2021/09/22 08:10:16;;;;;;;15.75;9.05;;;;;;;14.87;92.37;102217.31;4937545;28;20512;-83
2021/09/22 08:12:47;;;;;;;14.30;10.00;;;;;;;14.98;92.17;102212.00;4954076;28;20137;-86
2021/09/22 08:15:17;;;;;;;16.02;9.00;;;;;;;15.14;91.31;102210.22;4927049;28;20054;-86
2021/09/22 08:17:47;;;;;;;16.13;9.43;;;;;;;15.24;90.29;102206.69;4944808;28;20051;-83
2021/09/22 08:20:15;;;;;;;15.68;9.15;;;;;;;15.32;90.33;102201.38;4944622;28;20047;-82
2021/09/22 08:22:43;;;;;;;18.38;8.90;;;;;;;15.39;89.78;102203.94;4938152;28;20043;-83
2021/09/22 08:25:11;;;;;;;12.07;7.95;;;;;;;15.46;89.27;102196.91;4941042;28;20127;-82
2021/09/22 08:27:38;;;;;;;12.70;8.95;;;;;;;15.51;88.71;102188.97;4934883;28;20058;-83
2021/09/22 08:30:07;;;;;;;13.32;8.73;;;;;;;15.51;88.74;102195.13;4941724;28;20085;-86
2021/09/22 08:32:37;;;;;;;11.82;7.90;;;;;;;15.58;88.83;102195.97;4939819;28;20051;-86
2021/09/22 08:35:04;;;;;;;19.77;8.45;;;;;;;15.53;88.48;102198.63;4941100;28;20389;-82
2021/09/22 08:37:39;;;;;;;17.25;8.30;;;;;;;15.49;88.49;102204.81;4927560;28;20084;-85
2021/09/22 08:40:19;;;;;;;16.42;7.82;;;;;;;15.52;88.79;102203.91;4944191;28;20058;-85
2021/09/22 08:42:46;;;;;;;12.60;7.25;;;;;;;15.50;88.49;102203.94;4941943;28;20177;-82
2021/09/22 08:45:13;;;;;;;12.02;7.57;;;;;;;15.59;88.68;102200.38;4927322;28;20702;-85
2021/09/22 08:47:47;;;;;;;8.60;5.57;;;;;;;15.72;88.36;102201.16;4940340;28;20046;-84
2021/09/22 08:50:17;;;;;;;12.20;7.38;;;;;;;15.84;87.59;102201.13;4926485;28;20414;-83
2021/09/22 08:52:49;;;;;;;9.70;6.15;;;;;;;15.85;87.09;102197.63;4929652;28;20137;-85
2021/09/22 08:55:16;;;;;;;10.15;6.00;;;;;;;15.97;87.20;102196.66;4932320;28;20501;-84
2021/09/22 08:57:45;;;;;;;11.25;6.15;;;;;;;16.12;86.23;102200.06;4941562;28;20086;-83
2021/09/22 09:00:14;;;;;;;6.03;5.32;;;;;;;16.23;85.87;102203.53;4944985;28;20054;-83
2021/09/22 09:02:47;;;;;;;10.50;5.60;;;;;;;16.33;84.82;102207.81;4927582;28;20129;-83
2021/09/22 09:05:18;;;;;;;8.93;5.15;;;;;;;16.33;85.16;102204.31;4944288;28;20500;-82
2021/09/22 09:08:01;;;;;;;8.90;5.45;;;;;;;16.38;84.73;102198.06;4936937;28;20101;-83
2021/09/22 09:10:34;;;;;;;7.75;5.55;;;;;;;16.43;84.53;102199.84;4941773;28;20514;-83
2021/09/22 09:13:15;;;;;;;15.07;5.80;;;;;;;16.48;84.17;102204.19;4943237;28;20050;-84
2021/09/22 09:15:46;;;;;;;12.60;6.20;;;;;;;16.52;83.67;102197.09;4933763;28;20047;-84
2021/09/22 09:18:17;;;;;;;6.72;5.05;;;;;;;16.49;84.08;102199.75;4954806;28;20061;-83
2021/09/22 09:20:48;;;;;;;6.00;5.00;;;;;;;16.45;83.68;102195.41;4939011;28;20051;-83
2021/09/22 09:23:18;;;;;;;9.50;5.07;;;;;;;16.47;83.36;102194.50;4941813;28;20047;-85
2021/09/22 09:26:03;;;;;;;8.93;5.45;;;;;;;16.44;82.90;102199.81;4942693;28;20636;-83
2021/09/22 09:28:34;;;;;;;14.65;5.53;;;;;;;16.46;82.20;102197.16;4927693;28;20421;-84
2021/09/22 09:31:12;;;;;;;5.75;4.70;;;;;;;16.59;82.24;102195.28;4940278;28;20101;-85
2021/09/22 09:33:44;;;;;;;7.72;4.85;;;;;;;16.69;81.18;102210.16;4943646;28;20120;-83
2021/09/22 09:36:15;;;;;;;7.05;4.97;;;;;;;16.75;81.25;102207.47;4943085;28;20391;-84
2021/09/22 09:38:54;;;;;;;10.00;4.53;;;;;;;16.71;79.70;102200.44;4940847;28;20042;-83
2021/09/22 09:41:48;;;;;;;7.25;3.78;;;;;;;16.59;80.99;102206.72;4930936;28;20055;-84
2021/09/22 09:44:18;;;;;;;11.45;4.05;;;;;;;16.52;81.44;102202.41;4928480;28;20091;-84
2021/09/22 09:46:46;;;;;;;6.45;3.28;;;;;;;16.56;81.18;102200.56;4941533;28;20854;-85
2021/09/22 09:49:19;;;;;;;7.63;4.45;;;;;;;16.78;80.60;102206.53;4924712;28;20130;-84
2021/09/22 09:51:50;;;;;;;6.10;3.92;;;;;;;17.14;79.30;102201.78;4947551;28;20051;-84
2021/09/22 09:54:21;;;;;;;8.43;4.03;;;;;;;17.51;77.23;102196.03;4943838;28;20090;-83
2021/09/22 09:56:50;;;;;;;7.80;3.92;;;;;;;17.74;76.38;102193.06;4924096;28;20557;-83
2021/09/22 09:59:19;;;;;;;6.10;4.30;;;;;;;18.07;75.07;102188.19;4943907;28;20050;-85
2021/09/22 10:01:53;;;;;;;3.50;2.60;;;;;;;18.38;72.07;102189.47;4934474;28;20046;-84
2021/09/22 10:04:25;;;;;;;3.08;1.88;;;;;;;18.54;71.07;102187.41;4945313;28;20047;-83
2021/09/22 10:06:54;;;;;;;3.83;2.15;;;;;;;18.66;70.49;102182.75;4941494;28;20047;-87
2021/09/22 10:09:20;;;;;;;7.07;2.67;;;;;;;18.76;69.46;102188.78;4941498;28;20047;-83
2021/09/22 10:11:52;;;;;;;9.75;1.88;;;;;;;18.86;68.24;102181.50;4949948;28;20130;-82
2021/09/22 10:14:19;;;;;;;3.05;1.52;;;;;;;19.13;67.04;102195.19;4929222;28;20047;-85
2021/09/22 10:16:51;;;;;;;5.53;2.10;;;;;;;19.28;65.19;102192.22;4919894;28;20074;-86
2021/09/22 10:19:21;;;;;;;2.42;1.42;;;;;;;19.36;64.50;102185.84;4948403;28;20057;-85
2021/09/22 10:21:48;;;;;;;5.57;2.10;;;;;;;19.23;65.16;102185.22;4944348;28;20046;-83
2021/09/22 10:24:15;;;;;;;7.47;2.08;;;;;;;19.08;66.00;102184.66;4946502;28;20141;-85
2021/09/22 10:26:48;;;;;;;3.42;1.75;;;;;;;18.81;66.45;102178.97;4927192;28;20058;-83
2021/09/22 10:29:35;;;;;;;6.40;1.80;;;;;;;18.45;66.62;102184.03;4928327;28;20061;-86
2021/09/22 10:32:04;;;;;;;2.72;1.30;;;;;;;18.25;67.99;102181.72;4931719;28;20074;-84
2021/09/22 10:34:40;;;;;;;7.68;2.72;;;;;;;18.11;68.57;102183.72;4933318;28;20078;-83
2021/09/22 10:37:35;;;;;;;6.55;1.90;;;;;;;18.04;68.85;102182.94;4918261;28;20138;-87
2021/09/22 10:40:06;;;;;;;3.50;1.95;;;;;;;18.02;68.54;102179.44;4946261;28;20051;-87
2021/09/22 10:42:38;;;;;;;5.70;2.00;;;;;;;17.96;68.42;102174.22;4942533;28;20069;-82
2021/09/22 10:45:20;;;;;;;6.50;2.25;;;;;;;18.01;68.05;102172.38;4946844;28;20064;-84
2021/09/22 10:47:49;;;;;;;1.63;1.30;;;;;;;18.14;67.18;102175.72;4945605;28;20058;-83
2021/09/22 10:50:51;;;;;;;4.10;1.98;;;;;;;18.45;65.68;102170.78;4928213;28;20521;-86
2021/09/22 10:53:34;;;;;;;4.57;1.60;;;;;;;18.77;63.23;102166.66;4952327;28;20065;-84
2021/09/22 10:56:13;;;;;;;;;;;;;;;18.85;62.94;102167.38;4944080;28;20948;-83
2021/09/22 10:58:58;;;;;;;2.17;1.13;;;;;;;19.14;61.32;102160.63;4943825;28;20039;-86
2021/09/22 11:01:36;;;;;;;1.90;1.35;;;;;;;19.58;60.74;102149.97;4939021;28;20398;-85
2021/09/22 11:04:06;;;;;;;2.00;1.90;;;;;;;20.06;59.31;102151.50;4943533;28;20055;-85
2021/09/22 11:06:56;;;;;;;4.60;1.98;;;;;;;20.17;58.68;102148.59;4941426;28;20061;-84
2021/09/22 11:09:23;;;;;;;1.38;1.27;;;;;;;19.79;58.28;102153.00;4930485;28;20059;-84
2021/09/22 11:11:55;;;;;;;5.85;2.00;;;;;;;19.46;60.46;102145.81;4965083;28;20517;-86
2021/09/22 11:14:29;;;;;;;3.00;1.98;;;;;;;19.29;60.37;102138.19;4962531;28;20057;-83
2021/09/22 11:16:57;;;;;;;4.38;2.42;;;;;;;19.13;61.07;102139.44;4945158;28;20050;-85
2021/09/22 11:19:25;;;;;;;4.95;2.65;;;;;;;19.65;60.75;102129.44;4924519;28;20051;-86